Paducah, Kentucky
Current Conditions -  °F | °C
As of 10:53 PM on Friday 19 Dec 2014 (Local Time) from KPAH Reporting Station
Broken Clouds Broken Clouds  
Wind Chill: 35°   Ceiling: 6000
Heat Index: 35°   Visibility: 10mi
Dew Point: 27°   Wind: 0mph
Humidity: 72%   Direction: NA
Pressure: 30.28"   Gusts: NA
Location:  37.09°N, 88.59°W
Report Text: KPAH 200453Z 00000KT 10SM FEW034 BKN060 02/M03 A3028 RMK AO2 SLP255 T00171028
Loading
Personal Weather Stations






























Interactive Weather Map New forecast layout! Learn more

10-Day Weather Forecast

Advertisements
Track Severe Weather on mobile